sensor_id;sensor_type;location;lat;lon;timestamp;P1;durP1;ratioP1;P2;durP2;ratioP2
28170;SDS011;15458;53.346;-1.688;2023-01-23T00:00:34;55.90;;;25.95;;
28170;SDS011;15458;53.346;-1.688;2023-01-23T00:03:01;44.28;;;22.25;;
28170;SDS011;15458;53.346;-1.688;2023-01-23T00:05:27;49.33;;;23.38;;
28170;SDS011;15458;53.346;-1.688;2023-01-23T00:07:53;62.95;;;26.35;;
28170;SDS011;15458;53.346;-1.688;2023-01-23T00:10:18;57.80;;;27.77;;
28170;SDS011;15458;53.346;-1.688;2023-01-23T00:12:44;60.78;;;26.52;;
28170;SDS011;15458;53.346;-1.688;2023-01-23T00:15:13;57.22;;;27.55;;
28170;SDS011;15458;53.346;-1.688;2023-01-23T00:17:39;63.78;;;27.40;;
28170;SDS011;15458;53.346;-1.688;2023-01-23T00:20:08;60.05;;;28.30;;
28170;SDS011;15458;53.346;-1.688;2023-01-23T00:22:35;59.78;;;26.67;;
28170;SDS011;15458;53.346;-1.688;2023-01-23T00:25:03;53.95;;;26.83;;
28170;SDS011;15458;53.346;-1.688;2023-01-23T00:27:30;46.72;;;22.02;;
28170;SDS011;15458;53.346;-1.688;2023-01-23T00:29:57;53.83;;;25.33;;
28170;SDS011;15458;53.346;-1.688;2023-01-23T00:32:23;57.58;;;27.30;;
28170;SDS011;15458;53.346;-1.688;2023-01-23T00:34:49;57.40;;;26.35;;
28170;SDS011;15458;53.346;-1.688;2023-01-23T00:37:15;59.20;;;24.48;;
28170;SDS011;15458;53.346;-1.688;2023-01-23T00:39:41;65.20;;;27.13;;
28170;SDS011;15458;53.346;-1.688;2023-01-23T00:42:07;48.22;;;25.30;;
28170;SDS011;15458;53.346;-1.688;2023-01-23T00:44:33;64.28;;;27.17;;
28170;SDS011;15458;53.346;-1.688;2023-01-23T00:46:59;47.38;;;23.05;;
28170;SDS011;15458;53.346;-1.688;2023-01-23T00:49:24;58.92;;;26.35;;
28170;SDS011;15458;53.346;-1.688;2023-01-23T00:51:50;49.90;;;24.35;;
28170;SDS011;15458;53.346;-1.688;2023-01-23T00:54:17;56.05;;;25.05;;
28170;SDS011;15458;53.346;-1.688;2023-01-23T00:56:45;55.72;;;26.48;;
28170;SDS011;15458;53.346;-1.688;2023-01-23T00:59:14;56.00;;;26.42;;
28170;SDS011;15458;53.346;-1.688;2023-01-23T01:01:39;48.80;;;23.88;;
28170;SDS011;15458;53.346;-1.688;2023-01-23T01:04:05;56.28;;;26.05;;
28170;SDS011;15458;53.346;-1.688;2023-01-23T01:06:31;54.78;;;25.63;;
28170;SDS011;15458;53.346;-1.688;2023-01-23T01:08:57;51.58;;;25.13;;
28170;SDS011;15458;53.346;-1.688;2023-01-23T01:11:23;63.83;;;28.95;;
28170;SDS011;15458;53.346;-1.688;2023-01-23T01:13:50;58.92;;;27.67;;
28170;SDS011;15458;53.346;-1.688;2023-01-23T01:16:17;61.47;;;26.92;;
28170;SDS011;15458;53.346;-1.688;2023-01-23T01:18:43;58.53;;;28.08;;
28170;SDS011;15458;53.346;-1.688;2023-01-23T01:21:11;51.65;;;25.48;;
28170;SDS011;15458;53.346;-1.688;2023-01-23T01:23:40;53.55;;;25.70;;
28170;SDS011;15458;53.346;-1.688;2023-01-23T01:26:06;56.72;;;26.50;;
28170;SDS011;15458;53.346;-1.688;2023-01-23T01:28:33;58.20;;;27.10;;
28170;SDS011;15458;53.346;-1.688;2023-01-23T01:31:12;56.17;;;26.30;;
28170;SDS011;15458;53.346;-1.688;2023-01-23T01:33:40;59.05;;;26.20;;
28170;SDS011;15458;53.346;-1.688;2023-01-23T01:36:10;51.10;;;23.42;;
28170;SDS011;15458;53.346;-1.688;2023-01-23T01:38:37;48.53;;;22.80;;
28170;SDS011;15458;53.346;-1.688;2023-01-23T01:41:06;50.60;;;24.65;;
28170;SDS011;15458;53.346;-1.688;2023-01-23T01:43:33;56.20;;;26.52;;
28170;SDS011;15458;53.346;-1.688;2023-01-23T01:48:41;50.13;;;23.90;;
28170;SDS011;15458;53.346;-1.688;2023-01-23T01:54:01;40.05;;;19.60;;
28170;SDS011;15458;53.346;-1.688;2023-01-23T01:56:31;51.63;;;23.92;;
28170;SDS011;15458;53.346;-1.688;2023-01-23T01:59:01;46.65;;;21.35;;
28170;SDS011;15458;53.346;-1.688;2023-01-23T02:01:29;46.42;;;21.67;;
28170;SDS011;15458;53.346;-1.688;2023-01-23T02:03:55;47.92;;;23.25;;
28170;SDS011;15458;53.346;-1.688;2023-01-23T02:06:21;46.83;;;22.20;;
28170;SDS011;15458;53.346;-1.688;2023-01-23T02:08:53;49.65;;;23.00;;
28170;SDS011;15458;53.346;-1.688;2023-01-23T02:11:29;46.42;;;22.52;;
28170;SDS011;15458;53.346;-1.688;2023-01-23T02:13:56;50.03;;;23.27;;
28170;SDS011;15458;53.346;-1.688;2023-01-23T02:16:29;50.97;;;24.05;;
28170;SDS011;15458;53.346;-1.688;2023-01-23T02:19:01;52.55;;;23.33;;
28170;SDS011;15458;53.346;-1.688;2023-01-23T02:21:31;49.63;;;22.63;;
28170;SDS011;15458;53.346;-1.688;2023-01-23T02:26:42;51.45;;;22.98;;
28170;SDS011;15458;53.346;-1.688;2023-01-23T02:29:09;47.00;;;22.58;;
28170;SDS011;15458;53.346;-1.688;2023-01-23T02:31:36;47.65;;;21.85;;
28170;SDS011;15458;53.346;-1.688;2023-01-23T02:34:02;45.72;;;21.80;;
28170;SDS011;15458;53.346;-1.688;2023-01-23T02:36:31;46.08;;;23.10;;
28170;SDS011;15458;53.346;-1.688;2023-01-23T02:39:05;48.70;;;23.17;;
28170;SDS011;15458;53.346;-1.688;2023-01-23T02:41:50;45.88;;;22.02;;
28170;SDS011;15458;53.346;-1.688;2023-01-23T02:46:56;57.38;;;23.95;;
28170;SDS011;15458;53.346;-1.688;2023-01-23T02:49:24;50.28;;;24.90;;
28170;SDS011;15458;53.346;-1.688;2023-01-23T02:51:50;50.33;;;23.35;;
28170;SDS011;15458;53.346;-1.688;2023-01-23T02:54:17;47.25;;;22.80;;
28170;SDS011;15458;53.346;-1.688;2023-01-23T02:56:43;55.30;;;23.70;;
28170;SDS011;15458;53.346;-1.688;2023-01-23T02:59:09;54.80;;;25.25;;
28170;SDS011;15458;53.346;-1.688;2023-01-23T03:01:53;53.20;;;25.20;;
28170;SDS011;15458;53.346;-1.688;2023-01-23T03:04:19;49.50;;;24.13;;
28170;SDS011;15458;53.346;-1.688;2023-01-23T03:06:45;46.00;;;21.88;;
28170;SDS011;15458;53.346;-1.688;2023-01-23T03:09:12;49.45;;;21.77;;
28170;SDS011;15458;53.346;-1.688;2023-01-23T03:11:41;43.72;;;22.08;;
28170;SDS011;15458;53.346;-1.688;2023-01-23T03:14:12;50.47;;;23.65;;
28170;SDS011;15458;53.346;-1.688;2023-01-23T03:16:39;50.20;;;23.33;;
28170;SDS011;15458;53.346;-1.688;2023-01-23T03:19:07;54.08;;;24.48;;
28170;SDS011;15458;53.346;-1.688;2023-01-23T03:21:35;54.17;;;24.13;;
28170;SDS011;15458;53.346;-1.688;2023-01-23T03:24:04;55.05;;;23.42;;
28170;SDS011;15458;53.346;-1.688;2023-01-23T03:26:31;47.55;;;23.10;;
28170;SDS011;15458;53.346;-1.688;2023-01-23T03:28:57;51.70;;;24.50;;
28170;SDS011;15458;53.346;-1.688;2023-01-23T03:31:41;40.40;;;20.10;;
28170;SDS011;15458;53.346;-1.688;2023-01-23T03:34:07;49.55;;;22.58;;
28170;SDS011;15458;53.346;-1.688;2023-01-23T03:36:33;46.85;;;22.35;;
28170;SDS011;15458;53.346;-1.688;2023-01-23T03:39:05;49.10;;;23.52;;
28170;SDS011;15458;53.346;-1.688;2023-01-23T03:41:49;36.80;;;19.10;;
28170;SDS011;15458;53.346;-1.688;2023-01-23T03:44:16;51.92;;;24.08;;
28170;SDS011;15458;53.346;-1.688;2023-01-23T03:46:43;37.42;;;18.90;;
28170;SDS011;15458;53.346;-1.688;2023-01-23T03:49:09;44.03;;;20.80;;
28170;SDS011;15458;53.346;-1.688;2023-01-23T03:51:35;38.47;;;20.17;;
28170;SDS011;15458;53.346;-1.688;2023-01-23T03:54:01;35.83;;;17.50;;
28170;SDS011;15458;53.346;-1.688;2023-01-23T03:56:26;41.83;;;20.45;;
28170;SDS011;15458;53.346;-1.688;2023-01-23T03:58:52;39.00;;;19.58;;
28170;SDS011;15458;53.346;-1.688;2023-01-23T04:01:18;32.50;;;16.75;;
28170;SDS011;15458;53.346;-1.688;2023-01-23T04:03:43;41.25;;;19.63;;
28170;SDS011;15458;53.346;-1.688;2023-01-23T04:06:09;46.83;;;22.13;;
28170;SDS011;15458;53.346;-1.688;2023-01-23T04:08:35;45.13;;;21.70;;
28170;SDS011;15458;53.346;-1.688;2023-01-23T04:11:01;36.00;;;18.63;;
28170;SDS011;15458;53.346;-1.688;2023-01-23T04:13:28;45.13;;;21.67;;
28170;SDS011;15458;53.346;-1.688;2023-01-23T04:15:54;48.00;;;22.05;;
28170;SDS011;15458;53.346;-1.688;2023-01-23T04:18:20;40.85;;;20.05;;
28170;SDS011;15458;53.346;-1.688;2023-01-23T04:20:46;48.13;;;21.98;;
28170;SDS011;15458;53.346;-1.688;2023-01-23T04:23:12;35.38;;;17.35;;
28170;SDS011;15458;53.346;-1.688;2023-01-23T04:25:37;42.60;;;19.75;;
28170;SDS011;15458;53.346;-1.688;2023-01-23T04:28:03;47.75;;;23.05;;
28170;SDS011;15458;53.346;-1.688;2023-01-23T04:30:29;47.63;;;21.73;;
28170;SDS011;15458;53.346;-1.688;2023-01-23T04:32:54;52.47;;;22.15;;
28170;SDS011;15458;53.346;-1.688;2023-01-23T04:35:20;42.20;;;20.20;;
28170;SDS011;15458;53.346;-1.688;2023-01-23T04:37:46;46.10;;;21.10;;
28170;SDS011;15458;53.346;-1.688;2023-01-23T04:40:12;34.60;;;16.35;;
28170;SDS011;15458;53.346;-1.688;2023-01-23T04:42:37;42.30;;;21.55;;
28170;SDS011;15458;53.346;-1.688;2023-01-23T04:45:03;45.70;;;20.70;;
28170;SDS011;15458;53.346;-1.688;2023-01-23T04:47:29;49.83;;;23.15;;
28170;SDS011;15458;53.346;-1.688;2023-01-23T04:49:55;48.72;;;23.80;;
28170;SDS011;15458;53.346;-1.688;2023-01-23T04:52:20;48.22;;;22.98;;
28170;SDS011;15458;53.346;-1.688;2023-01-23T04:54:47;47.58;;;23.80;;
28170;SDS011;15458;53.346;-1.688;2023-01-23T04:57:14;52.45;;;24.13;;
28170;SDS011;15458;53.346;-1.688;2023-01-23T04:59:40;45.63;;;20.67;;
28170;SDS011;15458;53.346;-1.688;2023-01-23T05:02:05;44.55;;;22.63;;
28170;SDS011;15458;53.346;-1.688;2023-01-23T05:04:31;46.22;;;23.63;;
28170;SDS011;15458;53.346;-1.688;2023-01-23T05:06:57;50.60;;;24.10;;
28170;SDS011;15458;53.346;-1.688;2023-01-23T05:09:22;47.72;;;22.38;;
28170;SDS011;15458;53.346;-1.688;2023-01-23T05:11:48;52.53;;;22.45;;
28170;SDS011;15458;53.346;-1.688;2023-01-23T05:14:14;52.33;;;24.15;;
28170;SDS011;15458;53.346;-1.688;2023-01-23T05:16:39;49.65;;;23.58;;
28170;SDS011;15458;53.346;-1.688;2023-01-23T05:19:05;51.78;;;23.00;;
28170;SDS011;15458;53.346;-1.688;2023-01-23T05:21:31;54.05;;;24.00;;
28170;SDS011;15458;53.346;-1.688;2023-01-23T05:23:56;58.13;;;25.92;;
28170;SDS011;15458;53.346;-1.688;2023-01-23T05:26:22;54.85;;;26.95;;
28170;SDS011;15458;53.346;-1.688;2023-01-23T05:28:48;53.05;;;24.77;;
28170;SDS011;15458;53.346;-1.688;2023-01-23T05:31:14;44.80;;;22.67;;
28170;SDS011;15458;53.346;-1.688;2023-01-23T05:33:39;50.25;;;24.15;;
28170;SDS011;15458;53.346;-1.688;2023-01-23T05:36:05;46.13;;;23.27;;
28170;SDS011;15458;53.346;-1.688;2023-01-23T05:38:31;49.15;;;22.25;;
28170;SDS011;15458;53.346;-1.688;2023-01-23T05:40:57;55.90;;;24.98;;
28170;SDS011;15458;53.346;-1.688;2023-01-23T05:43:22;56.47;;;24.88;;
28170;SDS011;15458;53.346;-1.688;2023-01-23T05:45:48;60.75;;;24.85;;
28170;SDS011;15458;53.346;-1.688;2023-01-23T05:48:14;57.28;;;25.17;;
28170;SDS011;15458;53.346;-1.688;2023-01-23T05:50:39;60.38;;;28.48;;
28170;SDS011;15458;53.346;-1.688;2023-01-23T05:53:05;62.40;;;28.33;;
28170;SDS011;15458;53.346;-1.688;2023-01-23T05:55:31;56.53;;;27.27;;
28170;SDS011;15458;53.346;-1.688;2023-01-23T05:57:57;57.80;;;27.15;;
28170;SDS011;15458;53.346;-1.688;2023-01-23T06:00:22;55.10;;;26.75;;
28170;SDS011;15458;53.346;-1.688;2023-01-23T06:02:48;57.38;;;27.60;;
28170;SDS011;15458;53.346;-1.688;2023-01-23T06:05:14;65.72;;;28.13;;
28170;SDS011;15458;53.346;-1.688;2023-01-23T06:07:40;60.65;;;28.58;;
28170;SDS011;15458;53.346;-1.688;2023-01-23T06:10:06;58.88;;;26.27;;
28170;SDS011;15458;53.346;-1.688;2023-01-23T06:12:32;58.88;;;26.65;;
28170;SDS011;15458;53.346;-1.688;2023-01-23T06:14:58;57.42;;;26.00;;
28170;SDS011;15458;53.346;-1.688;2023-01-23T06:17:24;43.53;;;21.98;;
28170;SDS011;15458;53.346;-1.688;2023-01-23T06:19:49;58.65;;;26.73;;
28170;SDS011;15458;53.346;-1.688;2023-01-23T06:22:15;55.65;;;25.10;;
28170;SDS011;15458;53.346;-1.688;2023-01-23T06:24:40;56.40;;;25.98;;
28170;SDS011;15458;53.346;-1.688;2023-01-23T06:27:06;58.90;;;26.85;;
28170;SDS011;15458;53.346;-1.688;2023-01-23T06:29:33;52.20;;;25.95;;
28170;SDS011;15458;53.346;-1.688;2023-01-23T06:32:00;55.72;;;25.48;;
28170;SDS011;15458;53.346;-1.688;2023-01-23T06:34:26;58.08;;;23.80;;
28170;SDS011;15458;53.346;-1.688;2023-01-23T06:36:52;53.40;;;26.73;;
28170;SDS011;15458;53.346;-1.688;2023-01-23T06:39:18;49.30;;;23.85;;
28170;SDS011;15458;53.346;-1.688;2023-01-23T06:41:43;50.20;;;24.13;;
28170;SDS011;15458;53.346;-1.688;2023-01-23T06:44:09;56.42;;;25.80;;
28170;SDS011;15458;53.346;-1.688;2023-01-23T06:46:37;59.25;;;26.17;;
28170;SDS011;15458;53.346;-1.688;2023-01-23T06:49:04;49.13;;;24.67;;
28170;SDS011;15458;53.346;-1.688;2023-01-23T06:51:30;58.10;;;25.27;;
28170;SDS011;15458;53.346;-1.688;2023-01-23T06:53:56;54.38;;;26.05;;
28170;SDS011;15458;53.346;-1.688;2023-01-23T06:56:22;56.78;;;26.55;;
28170;SDS011;15458;53.346;-1.688;2023-01-23T06:58:48;58.45;;;26.27;;
28170;SDS011;15458;53.346;-1.688;2023-01-23T07:01:15;57.92;;;26.25;;
28170;SDS011;15458;53.346;-1.688;2023-01-23T07:03:42;56.17;;;27.05;;
28170;SDS011;15458;53.346;-1.688;2023-01-23T07:06:12;50.92;;;25.60;;
28170;SDS011;15458;53.346;-1.688;2023-01-23T07:08:39;44.50;;;20.80;;
28170;SDS011;15458;53.346;-1.688;2023-01-23T07:11:05;53.70;;;26.13;;
28170;SDS011;15458;53.346;-1.688;2023-01-23T07:13:32;50.13;;;24.73;;
28170;SDS011;15458;53.346;-1.688;2023-01-23T07:15:58;53.47;;;27.08;;
28170;SDS011;15458;53.346;-1.688;2023-01-23T07:18:27;54.53;;;24.98;;
28170;SDS011;15458;53.346;-1.688;2023-01-23T07:20:54;57.00;;;26.83;;
28170;SDS011;15458;53.346;-1.688;2023-01-23T07:23:20;59.08;;;27.13;;
28170;SDS011;15458;53.346;-1.688;2023-01-23T07:25:47;54.45;;;27.42;;
28170;SDS011;15458;53.346;-1.688;2023-01-23T07:28:13;50.25;;;22.48;;
28170;SDS011;15458;53.346;-1.688;2023-01-23T07:30:39;59.85;;;27.15;;
28170;SDS011;15458;53.346;-1.688;2023-01-23T07:35:47;51.35;;;25.35;;
28170;SDS011;15458;53.346;-1.688;2023-01-23T07:38:13;56.50;;;25.83;;
28170;SDS011;15458;53.346;-1.688;2023-01-23T07:40:39;57.65;;;28.05;;
28170;SDS011;15458;53.346;-1.688;2023-01-23T07:43:06;64.85;;;30.15;;
28170;SDS011;15458;53.346;-1.688;2023-01-23T07:45:32;61.03;;;27.98;;
28170;SDS011;15458;53.346;-1.688;2023-01-23T07:47:58;63.25;;;28.17;;
28170;SDS011;15458;53.346;-1.688;2023-01-23T07:50:23;61.17;;;28.77;;
28170;SDS011;15458;53.346;-1.688;2023-01-23T07:52:49;60.63;;;28.08;;
28170;SDS011;15458;53.346;-1.688;2023-01-23T07:55:15;51.38;;;23.25;;
28170;SDS011;15458;53.346;-1.688;2023-01-23T07:57:40;61.72;;;30.13;;
28170;SDS011;15458;53.346;-1.688;2023-01-23T08:00:07;59.47;;;29.15;;
28170;SDS011;15458;53.346;-1.688;2023-01-23T08:02:35;63.55;;;28.02;;
28170;SDS011;15458;53.346;-1.688;2023-01-23T08:05:02;59.03;;;28.58;;
28170;SDS011;15458;53.346;-1.688;2023-01-23T08:07:28;54.13;;;26.60;;
28170;SDS011;15458;53.346;-1.688;2023-01-23T08:09:53;56.08;;;27.23;;
28170;SDS011;15458;53.346;-1.688;2023-01-23T08:12:19;60.20;;;27.95;;
28170;SDS011;15458;53.346;-1.688;2023-01-23T08:14:45;57.70;;;25.38;;
28170;SDS011;15458;53.346;-1.688;2023-01-23T08:17:11;54.67;;;26.73;;
28170;SDS011;15458;53.346;-1.688;2023-01-23T08:19:37;59.38;;;27.38;;
28170;SDS011;15458;53.346;-1.688;2023-01-23T08:22:03;50.17;;;25.73;;
28170;SDS011;15458;53.346;-1.688;2023-01-23T08:24:29;54.92;;;26.67;;
28170;SDS011;15458;53.346;-1.688;2023-01-23T08:26:54;58.20;;;28.60;;
28170;SDS011;15458;53.346;-1.688;2023-01-23T08:29:20;52.58;;;26.52;;
28170;SDS011;15458;53.346;-1.688;2023-01-23T08:31:46;43.88;;;21.70;;
28170;SDS011;15458;53.346;-1.688;2023-01-23T08:34:12;56.72;;;26.58;;
28170;SDS011;15458;53.346;-1.688;2023-01-23T08:36:38;47.63;;;23.50;;
28170;SDS011;15458;53.346;-1.688;2023-01-23T08:39:05;53.47;;;25.80;;
28170;SDS011;15458;53.346;-1.688;2023-01-23T08:41:31;55.95;;;26.90;;
28170;SDS011;15458;53.346;-1.688;2023-01-23T08:43:57;44.03;;;22.20;;
28170;SDS011;15458;53.346;-1.688;2023-01-23T08:46:25;56.78;;;25.70;;
28170;SDS011;15458;53.346;-1.688;2023-01-23T08:48:54;47.17;;;23.40;;
28170;SDS011;15458;53.346;-1.688;2023-01-23T08:51:20;47.15;;;24.88;;
28170;SDS011;15458;53.346;-1.688;2023-01-23T08:53:52;56.55;;;26.33;;
28170;SDS011;15458;53.346;-1.688;2023-01-23T08:56:28;51.17;;;23.42;;
28170;SDS011;15458;53.346;-1.688;2023-01-23T08:59:08;44.90;;;21.88;;
28170;SDS011;15458;53.346;-1.688;2023-01-23T09:01:40;49.95;;;24.58;;
28170;SDS011;15458;53.346;-1.688;2023-01-23T09:07:14;59.67;;;27.50;;
28170;SDS011;15458;53.346;-1.688;2023-01-23T09:09:40;90.55;;;38.70;;
28170;SDS011;15458;53.346;-1.688;2023-01-23T09:12:10;64.10;;;29.55;;
28170;SDS011;15458;53.346;-1.688;2023-01-23T09:14:49;71.47;;;31.55;;
28170;SDS011;15458;53.346;-1.688;2023-01-23T09:17:22;65.70;;;32.20;;
28170;SDS011;15458;53.346;-1.688;2023-01-23T09:19:50;64.05;;;31.75;;
28170;SDS011;15458;53.346;-1.688;2023-01-23T09:22:47;69.32;;;31.80;;
28170;SDS011;15458;53.346;-1.688;2023-01-23T09:25:29;62.10;;;29.23;;
28170;SDS011;15458;53.346;-1.688;2023-01-23T09:31:31;62.55;;;28.80;;
28170;SDS011;15458;53.346;-1.688;2023-01-23T09:37:28;59.08;;;26.48;;
28170;SDS011;15458;53.346;-1.688;2023-01-23T09:43:38;57.00;;;26.48;;
28170;SDS011;15458;53.346;-1.688;2023-01-23T09:49:52;54.65;;;26.42;;
28170;SDS011;15458;53.346;-1.688;2023-01-23T09:52:57;55.25;;;25.75;;
28170;SDS011;15458;53.346;-1.688;2023-01-23T09:56:20;56.47;;;25.80;;
28170;SDS011;15458;53.346;-1.688;2023-01-23T09:59:10;54.85;;;27.05;;
28170;SDS011;15458;53.346;-1.688;2023-01-23T10:02:15;48.58;;;24.42;;
28170;SDS011;15458;53.346;-1.688;2023-01-23T10:04:55;54.90;;;25.35;;
28170;SDS011;15458;53.346;-1.688;2023-01-23T10:07:44;57.28;;;27.92;;
28170;SDS011;15458;53.346;-1.688;2023-01-23T10:25:54;43.08;;;22.10;;
28170;SDS011;15458;53.346;-1.688;2023-01-23T10:28:28;48.60;;;23.38;;
28170;SDS011;15458;53.346;-1.688;2023-01-23T10:31:05;45.25;;;23.83;;
28170;SDS011;15458;53.346;-1.688;2023-01-23T10:36:38;43.08;;;23.20;;
28170;SDS011;15458;53.346;-1.688;2023-01-23T10:39:56;45.25;;;22.35;;
28170;SDS011;15458;53.346;-1.688;2023-01-23T10:43:01;46.13;;;22.52;;
28170;SDS011;15458;53.346;-1.688;2023-01-23T10:48:54;38.17;;;20.35;;
28170;SDS011;15458;53.346;-1.688;2023-01-23T10:51:50;38.35;;;19.77;;
28170;SDS011;15458;53.346;-1.688;2023-01-23T10:54:57;40.38;;;20.40;;
28170;SDS011;15458;53.346;-1.688;2023-01-23T10:57:25;37.75;;;19.38;;
28170;SDS011;15458;53.346;-1.688;2023-01-23T10:59:58;36.53;;;19.88;;
28170;SDS011;15458;53.346;-1.688;2023-01-23T11:02:33;36.80;;;20.20;;
28170;SDS011;15458;53.346;-1.688;2023-01-23T11:05:36;35.92;;;19.65;;
28170;SDS011;15458;53.346;-1.688;2023-01-23T11:13:41;37.08;;;20.30;;
28170;SDS011;15458;53.346;-1.688;2023-01-23T11:16:22;39.90;;;21.60;;
28170;SDS011;15458;53.346;-1.688;2023-01-23T11:21:22;39.38;;;21.17;;
28170;SDS011;15458;53.346;-1.688;2023-01-23T11:24:29;34.88;;;20.15;;
28170;SDS011;15458;53.346;-1.688;2023-01-23T11:26:58;40.30;;;21.10;;
28170;SDS011;15458;53.346;-1.688;2023-01-23T11:29:25;35.10;;;20.02;;
28170;SDS011;15458;53.346;-1.688;2023-01-23T11:31:59;37.45;;;21.27;;
28170;SDS011;15458;53.346;-1.688;2023-01-23T11:42:36;38.00;;;21.58;;
28170;SDS011;15458;53.346;-1.688;2023-01-23T11:50:44;32.55;;;18.50;;
28170;SDS011;15458;53.346;-1.688;2023-01-23T11:55:57;35.55;;;18.65;;
28170;SDS011;15458;53.346;-1.688;2023-01-23T12:07:26;29.45;;;16.13;;
28170;SDS011;15458;53.346;-1.688;2023-01-23T12:16:05;31.33;;;18.75;;
28170;SDS011;15458;53.346;-1.688;2023-01-23T12:21:41;33.55;;;17.73;;
28170;SDS011;15458;53.346;-1.688;2023-01-23T12:24:19;28.85;;;17.38;;
28170;SDS011;15458;53.346;-1.688;2023-01-23T12:33:37;33.20;;;19.55;;
28170;SDS011;15458;53.346;-1.688;2023-01-23T12:42:12;28.52;;;16.73;;
28170;SDS011;15458;53.346;-1.688;2023-01-23T12:45:22;27.17;;;17.20;;
28170;SDS011;15458;53.346;-1.688;2023-01-23T12:48:13;33.70;;;18.08;;
28170;SDS011;15458;53.346;-1.688;2023-01-23T12:54:26;31.70;;;17.70;;
28170;SDS011;15458;53.346;-1.688;2023-01-23T13:09:49;29.83;;;17.70;;
28170;SDS011;15458;53.346;-1.688;2023-01-23T13:12:47;26.67;;;16.65;;
28170;SDS011;15458;53.346;-1.688;2023-01-23T13:18:20;30.45;;;17.23;;
28170;SDS011;15458;53.346;-1.688;2023-01-23T13:20:53;29.35;;;16.90;;
28170;SDS011;15458;53.346;-1.688;2023-01-23T13:36:27;29.45;;;17.25;;
28170;SDS011;15458;53.346;-1.688;2023-01-23T13:41:47;29.80;;;17.05;;
28170;SDS011;15458;53.346;-1.688;2023-01-23T13:44:40;27.40;;;15.80;;
28170;SDS011;15458;53.346;-1.688;2023-01-23T13:51:39;32.78;;;16.10;;
28170;SDS011;15458;53.346;-1.688;2023-01-23T13:54:24;27.88;;;16.60;;
28170;SDS011;15458;53.346;-1.688;2023-01-23T13:57:36;24.50;;;14.93;;
28170;SDS011;15458;53.346;-1.688;2023-01-23T14:00:33;24.73;;;15.38;;
28170;SDS011;15458;53.346;-1.688;2023-01-23T14:03:39;27.45;;;15.88;;
28170;SDS011;15458;53.346;-1.688;2023-01-23T14:06:35;24.67;;;15.30;;
28170;SDS011;15458;53.346;-1.688;2023-01-23T14:09:26;26.05;;;15.60;;
28170;SDS011;15458;53.346;-1.688;2023-01-23T14:12:07;27.30;;;15.07;;
28170;SDS011;15458;53.346;-1.688;2023-01-23T14:15:02;22.15;;;14.57;;
28170;SDS011;15458;53.346;-1.688;2023-01-23T14:18:15;23.17;;;14.60;;
28170;SDS011;15458;53.346;-1.688;2023-01-23T14:21:14;25.52;;;14.73;;
28170;SDS011;15458;53.346;-1.688;2023-01-23T14:23:59;21.67;;;14.15;;
28170;SDS011;15458;53.346;-1.688;2023-01-23T14:27:06;24.45;;;13.93;;
28170;SDS011;15458;53.346;-1.688;2023-01-23T14:29:33;24.13;;;13.73;;
28170;SDS011;15458;53.346;-1.688;2023-01-23T14:32:22;21.30;;;13.43;;
28170;SDS011;15458;53.346;-1.688;2023-01-23T14:34:59;21.05;;;14.15;;
28170;SDS011;15458;53.346;-1.688;2023-01-23T14:37:25;22.58;;;13.23;;
28170;SDS011;15458;53.346;-1.688;2023-01-23T14:45:17;24.52;;;14.15;;
28170;SDS011;15458;53.346;-1.688;2023-01-23T14:47:48;25.70;;;15.07;;
28170;SDS011;15458;53.346;-1.688;2023-01-23T14:50:17;24.73;;;14.38;;
28170;SDS011;15458;53.346;-1.688;2023-01-23T14:56:06;24.55;;;14.35;;
28170;SDS011;15458;53.346;-1.688;2023-01-23T14:58:38;24.20;;;13.95;;
28170;SDS011;15458;53.346;-1.688;2023-01-23T15:01:05;21.88;;;14.20;;
28170;SDS011;15458;53.346;-1.688;2023-01-23T15:03:42;25.80;;;14.50;;
28170;SDS011;15458;53.346;-1.688;2023-01-23T15:06:20;26.25;;;14.98;;
28170;SDS011;15458;53.346;-1.688;2023-01-23T15:08:47;22.90;;;14.25;;
28170;SDS011;15458;53.346;-1.688;2023-01-23T15:11:14;23.58;;;13.73;;
28170;SDS011;15458;53.346;-1.688;2023-01-23T15:13:43;24.15;;;14.38;;
28170;SDS011;15458;53.346;-1.688;2023-01-23T15:16:22;24.45;;;13.98;;
28170;SDS011;15458;53.346;-1.688;2023-01-23T15:19:07;24.17;;;14.20;;
28170;SDS011;15458;53.346;-1.688;2023-01-23T15:22:00;24.58;;;14.55;;
28170;SDS011;15458;53.346;-1.688;2023-01-23T15:24:47;27.35;;;16.05;;
28170;SDS011;15458;53.346;-1.688;2023-01-23T15:27:47;20.88;;;13.77;;
28170;SDS011;15458;53.346;-1.688;2023-01-23T15:32:57;26.17;;;14.35;;
28170;SDS011;15458;53.346;-1.688;2023-01-23T15:35:33;25.15;;;14.52;;
28170;SDS011;15458;53.346;-1.688;2023-01-23T15:38:01;25.07;;;14.00;;
28170;SDS011;15458;53.346;-1.688;2023-01-23T15:40:31;24.08;;;13.10;;
28170;SDS011;15458;53.346;-1.688;2023-01-23T15:43:00;26.17;;;14.40;;
28170;SDS011;15458;53.346;-1.688;2023-01-23T15:45:55;24.00;;;13.45;;
28170;SDS011;15458;53.346;-1.688;2023-01-23T15:48:23;23.40;;;13.55;;
28170;SDS011;15458;53.346;-1.688;2023-01-23T15:50:52;23.95;;;13.68;;
28170;SDS011;15458;53.346;-1.688;2023-01-23T15:53:18;23.30;;;13.63;;
28170;SDS011;15458;53.346;-1.688;2023-01-23T15:55:45;24.25;;;14.38;;
28170;SDS011;15458;53.346;-1.688;2023-01-23T15:58:14;23.00;;;13.43;;
28170;SDS011;15458;53.346;-1.688;2023-01-23T16:00:45;25.67;;;14.57;;
28170;SDS011;15458;53.346;-1.688;2023-01-23T16:03:34;24.52;;;13.25;;
28170;SDS011;15458;53.346;-1.688;2023-01-23T16:06:00;24.92;;;14.23;;
28170;SDS011;15458;53.346;-1.688;2023-01-23T16:08:29;25.63;;;13.98;;
28170;SDS011;15458;53.346;-1.688;2023-01-23T16:10:54;23.75;;;13.52;;
28170;SDS011;15458;53.346;-1.688;2023-01-23T16:13:20;24.52;;;13.60;;
28170;SDS011;15458;53.346;-1.688;2023-01-23T16:15:52;27.45;;;13.65;;
28170;SDS011;15458;53.346;-1.688;2023-01-23T16:20:53;24.83;;;14.15;;
28170;SDS011;15458;53.346;-1.688;2023-01-23T16:23:23;25.35;;;14.43;;
28170;SDS011;15458;53.346;-1.688;2023-01-23T16:25:49;27.63;;;15.00;;
28170;SDS011;15458;53.346;-1.688;2023-01-23T16:28:17;31.25;;;14.95;;
28170;SDS011;15458;53.346;-1.688;2023-01-23T16:30:45;28.95;;;15.88;;
28170;SDS011;15458;53.346;-1.688;2023-01-23T16:33:20;24.27;;;13.93;;
28170;SDS011;15458;53.346;-1.688;2023-01-23T16:35:47;26.63;;;14.52;;
28170;SDS011;15458;53.346;-1.688;2023-01-23T16:38:26;26.23;;;14.25;;
28170;SDS011;15458;53.346;-1.688;2023-01-23T16:40:57;27.77;;;14.63;;
28170;SDS011;15458;53.346;-1.688;2023-01-23T16:43:25;29.55;;;14.40;;
28170;SDS011;15458;53.346;-1.688;2023-01-23T16:45:55;25.92;;;14.65;;
28170;SDS011;15458;53.346;-1.688;2023-01-23T16:48:23;22.85;;;12.65;;
28170;SDS011;15458;53.346;-1.688;2023-01-23T16:50:56;26.67;;;14.75;;
28170;SDS011;15458;53.346;-1.688;2023-01-23T16:56:35;23.83;;;13.50;;
28170;SDS011;15458;53.346;-1.688;2023-01-23T17:02:31;24.02;;;12.63;;
28170;SDS011;15458;53.346;-1.688;2023-01-23T17:04:59;26.67;;;13.68;;
28170;SDS011;15458;53.346;-1.688;2023-01-23T17:07:24;24.33;;;13.77;;
28170;SDS011;15458;53.346;-1.688;2023-01-23T17:09:57;28.20;;;13.80;;
28170;SDS011;15458;53.346;-1.688;2023-01-23T17:12:26;25.17;;;14.30;;
28170;SDS011;15458;53.346;-1.688;2023-01-23T17:14:58;27.92;;;13.57;;
28170;SDS011;15458;53.346;-1.688;2023-01-23T17:17:33;19.80;;;11.88;;
28170;SDS011;15458;53.346;-1.688;2023-01-23T17:20:05;29.23;;;14.48;;